createdAt,value
2022-08-29T00:00:31.365Z,4.75
2022-08-29T00:03:01.111Z,3.97
2022-08-29T00:05:37.554Z,4.55
2022-08-29T00:08:07.448Z,3.55
2022-08-29T00:10:39.643Z,4.43
2022-08-29T00:13:12.760Z,4.82
2022-08-29T00:15:44.819Z,4.93
2022-08-29T00:18:15.240Z,4.13
2022-08-29T00:20:44.891Z,4.55
2022-08-29T00:23:13.441Z,4.25
2022-08-29T00:25:42.020Z,4.90
2022-08-29T00:28:12.134Z,4.10
2022-08-29T00:30:41.659Z,4.60
2022-08-29T00:33:10.855Z,4.57
2022-08-29T00:35:42.978Z,4.43
2022-08-29T00:38:16.363Z,4.10
2022-08-29T00:40:51.689Z,4.47
2022-08-29T00:43:26.013Z,3.97
2022-08-29T00:46:11.293Z,4.70
2022-08-29T00:48:42.069Z,4.05
2022-08-29T00:51:18.663Z,4.15
2022-08-29T00:53:53.578Z,4.28
2022-08-29T00:56:22.769Z,4.40
2022-08-29T00:58:59.070Z,4.25
2022-08-29T01:01:27.891Z,5.30
2022-08-29T01:03:56.648Z,4.17
2022-08-29T01:06:27.632Z,4.20
2022-08-29T01:08:57.928Z,4.05
2022-08-29T01:11:48.927Z,4.20
2022-08-29T01:14:21.767Z,4.60
2022-08-29T01:16:52.938Z,4.40
2022-08-29T01:19:37.749Z,4.68
2022-08-29T01:22:23.656Z,4.40
2022-08-29T01:24:56.035Z,4.53
2022-08-29T01:27:31.034Z,4.73
2022-08-29T01:30:00.037Z,4.63
2022-08-29T01:32:28.648Z,4.30
2022-08-29T01:34:57.569Z,4.50
2022-08-29T01:37:32.588Z,4.57
2022-08-29T01:40:02.658Z,4.67
2022-08-29T01:42:36.475Z,4.70
2022-08-29T01:45:09.656Z,5.00
2022-08-29T01:47:40.022Z,4.17
2022-08-29T01:50:13.780Z,4.70
2022-08-29T01:52:43.684Z,5.20
2022-08-29T01:55:13.445Z,4.80
2022-08-29T01:57:42.789Z,4.07
2022-08-29T02:00:13.543Z,4.50
2022-08-29T02:02:43.871Z,4.70
2022-08-29T02:05:12.291Z,4.83
2022-08-29T02:07:40.877Z,4.20
2022-08-29T02:10:10.287Z,4.00
2022-08-29T02:12:40.759Z,4.43
2022-08-29T02:15:09.777Z,4.83
2022-08-29T02:17:39.408Z,4.47
2022-08-29T02:20:09.704Z,4.30
2022-08-29T02:22:40.783Z,3.93
2022-08-29T02:25:26.279Z,4.63
2022-08-29T02:27:57.438Z,4.47
2022-08-29T02:30:26.891Z,4.43
2022-08-29T02:32:55.072Z,4.10
2022-08-29T02:35:24.442Z,4.33
2022-08-29T02:37:52.791Z,4.30
2022-08-29T02:40:24.612Z,4.70
2022-08-29T02:43:03.514Z,4.63
2022-08-29T02:45:32.904Z,4.70
2022-08-29T02:48:01.486Z,4.93
2022-08-29T02:50:29.962Z,4.30
2022-08-29T02:52:59.083Z,4.73
2022-08-29T02:55:27.731Z,4.47
2022-08-29T02:57:56.352Z,4.80
2022-08-29T03:00:28.707Z,4.40
2022-08-29T03:02:57.835Z,4.20
2022-08-29T03:05:35.196Z,4.53
2022-08-29T03:08:07.074Z,4.70
2022-08-29T03:10:36.731Z,4.50
2022-08-29T03:13:06.163Z,5.00
2022-08-29T03:15:36.365Z,4.33
2022-08-29T03:18:05.356Z,4.17
2022-08-29T03:20:37.343Z,4.13
2022-08-29T03:23:07.330Z,5.50
2022-08-29T03:25:37.705Z,5.13
2022-08-29T03:28:06.232Z,5.10
2022-08-29T03:30:36.199Z,5.00
2022-08-29T03:33:07.818Z,4.30
2022-08-29T03:35:40.310Z,5.43
2022-08-29T03:38:08.763Z,4.63
2022-08-29T03:40:37.124Z,4.95
2022-08-29T03:43:05.910Z,4.70
2022-08-29T03:45:35.537Z,4.63
2022-08-29T03:48:04.343Z,5.10
2022-08-29T03:50:33.532Z,4.90
2022-08-29T03:53:01.870Z,4.80
2022-08-29T03:55:29.912Z,5.00
2022-08-29T03:57:58.965Z,5.00
2022-08-29T04:00:27.233Z,4.78
2022-08-29T04:02:58.324Z,4.40
2022-08-29T04:05:26.757Z,4.97
2022-08-29T04:07:58.816Z,5.15
2022-08-29T04:10:31.945Z,4.35
2022-08-29T04:13:02.414Z,4.97
2022-08-29T04:15:32.463Z,4.70
2022-08-29T04:18:07.111Z,5.00
2022-08-29T04:20:45.194Z,4.70
2022-08-29T04:23:15.213Z,4.90
2022-08-29T04:25:45.584Z,4.57
2022-08-29T04:28:15.551Z,4.88
2022-08-29T04:30:51.898Z,4.82
2022-08-29T04:33:25.896Z,4.88
2022-08-29T04:35:54.477Z,4.93
2022-08-29T04:38:23.646Z,5.60
2022-08-29T04:40:51.667Z,5.03
2022-08-29T04:43:20.146Z,4.93
2022-08-29T04:45:56.266Z,5.13
2022-08-29T04:48:26.429Z,5.20
2022-08-29T04:50:56.439Z,4.97
2022-08-29T04:53:27.027Z,5.25
2022-08-29T04:55:59.098Z,4.43
2022-08-29T04:58:27.403Z,6.35
2022-08-29T05:00:56.412Z,4.90
2022-08-29T05:03:27.149Z,4.70
2022-08-29T05:06:00.032Z,4.85
2022-08-29T05:08:29.186Z,4.95
2022-08-29T05:10:58.773Z,5.65
2022-08-29T05:13:28.268Z,8.05
2022-08-29T05:15:56.423Z,4.60
2022-08-29T05:18:26.904Z,4.78
2022-08-29T05:20:56.011Z,5.50
2022-08-29T05:23:24.356Z,5.90
2022-08-29T05:25:58.627Z,5.20
2022-08-29T05:28:29.580Z,5.00
2022-08-29T05:30:57.862Z,5.13
2022-08-29T05:33:28.647Z,4.57
2022-08-29T05:35:57.871Z,5.03
2022-08-29T05:38:26.891Z,4.90
2022-08-29T05:40:54.981Z,4.85
2022-08-29T05:43:23.949Z,4.50
2022-08-29T05:46:02.090Z,4.78
2022-08-29T05:48:33.835Z,5.10
2022-08-29T05:51:03.254Z,4.80
2022-08-29T05:53:31.399Z,5.70
2022-08-29T05:55:59.864Z,5.32
2022-08-29T05:58:28.567Z,5.57
2022-08-29T06:00:56.644Z,5.05
2022-08-29T06:03:26.418Z,5.20
2022-08-29T06:05:56.103Z,5.32
2022-08-29T06:08:24.985Z,5.05
2022-08-29T06:10:53.253Z,5.40
2022-08-29T06:13:21.844Z,5.67
2022-08-29T06:15:50.416Z,5.68
2022-08-29T06:18:18.533Z,5.55
2022-08-29T06:20:56.657Z,5.45
2022-08-29T06:23:24.760Z,5.30
2022-08-29T06:25:57.804Z,5.50
2022-08-29T06:28:28.484Z,4.72
2022-08-29T06:30:57.112Z,4.90
2022-08-29T06:33:25.258Z,5.55
2022-08-29T06:35:54.705Z,5.40
2022-08-29T06:38:24.531Z,5.10
2022-08-29T06:40:52.811Z,5.20
2022-08-29T06:43:21.487Z,5.63
2022-08-29T06:45:50.186Z,5.47
2022-08-29T06:48:18.865Z,5.43
2022-08-29T06:50:47.284Z,4.90
2022-08-29T06:53:27.591Z,5.30
2022-08-29T06:56:11.156Z,5.28
2022-08-29T06:58:40.683Z,5.15
2022-08-29T07:01:10.915Z,5.35
2022-08-29T07:03:39.724Z,4.68
2022-08-29T07:06:08.456Z,5.57
2022-08-29T07:08:43.657Z,5.80
2022-08-29T07:11:25.590Z,5.00
2022-08-29T07:13:54.727Z,5.32
2022-08-29T07:16:23.140Z,4.75
2022-08-29T07:18:52.088Z,5.07
2022-08-29T07:21:24.358Z,4.40
2022-08-29T07:23:54.960Z,4.35
2022-08-29T07:26:29.817Z,4.72
2022-08-29T07:29:03.559Z,4.20
2022-08-29T07:31:33.888Z,4.90
2022-08-29T07:34:03.251Z,4.72
2022-08-29T07:36:34.747Z,4.93
2022-08-29T07:39:07.344Z,5.30
2022-08-29T07:41:38.675Z,4.63
2022-08-29T07:44:07.072Z,4.63
2022-08-29T07:46:36.295Z,5.03
2022-08-29T07:49:06.048Z,4.45
2022-08-29T07:51:35.415Z,4.47
2022-08-29T07:54:04.687Z,4.53
2022-08-29T07:56:41.398Z,4.40
2022-08-29T07:59:10.841Z,4.05
2022-08-29T08:01:40.204Z,4.28
2022-08-29T08:04:09.359Z,4.80
2022-08-29T08:06:40.762Z,4.40
2022-08-29T08:09:12.456Z,3.50
2022-08-29T08:11:43.510Z,4.03
2022-08-29T08:14:12.570Z,3.85
2022-08-29T08:16:44.335Z,3.97
2022-08-29T08:19:13.525Z,4.05
2022-08-29T08:21:49.731Z,3.70
2022-08-29T08:24:19.926Z,4.13
2022-08-29T08:26:50.466Z,3.95
2022-08-29T08:29:19.532Z,3.65
2022-08-29T08:31:51.629Z,3.78
2022-08-29T08:34:21.485Z,3.90
2022-08-29T08:36:50.864Z,4.15
2022-08-29T08:39:19.689Z,3.90
2022-08-29T08:41:58.587Z,4.35
2022-08-29T08:44:50.647Z,4.15
2022-08-29T08:47:28.132Z,3.53
2022-08-29T08:50:02.469Z,4.15
2022-08-29T08:52:43.415Z,3.65
2022-08-29T08:55:26.451Z,3.58
2022-08-29T08:58:11.342Z,3.17
2022-08-29T09:00:47.884Z,4.30
2022-08-29T09:04:05.713Z,3.60
2022-08-29T09:06:54.460Z,3.67
2022-08-29T09:09:42.467Z,3.90
2022-08-29T09:12:28.767Z,3.80
2022-08-29T09:15:13.762Z,3.20
2022-08-29T09:17:50.175Z,3.90
2022-08-29T09:20:26.230Z,3.42
2022-08-29T09:23:02.631Z,3.90
2022-08-29T09:25:36.532Z,3.55
2022-08-29T09:28:09.081Z,3.75
2022-08-29T09:30:43.165Z,4.18
2022-08-29T09:33:15.428Z,2.92
2022-08-29T09:35:47.880Z,3.70
2022-08-29T09:38:24.126Z,4.35
2022-08-29T09:40:58.439Z,3.50
2022-08-29T09:43:34.572Z,3.40
2022-08-29T09:46:13.678Z,3.20
2022-08-29T09:48:45.459Z,3.80
2022-08-29T09:51:25.000Z,3.47
2022-08-29T09:53:54.795Z,3.10
2022-08-29T09:56:29.292Z,4.05
2022-08-29T09:59:12.356Z,4.00
2022-08-29T10:01:42.081Z,3.13
2022-08-29T10:04:11.024Z,3.25
2022-08-29T10:06:46.153Z,3.67
2022-08-29T10:09:30.485Z,3.85
2022-08-29T10:12:04.894Z,3.42
2022-08-29T10:14:42.003Z,4.43
2022-08-29T10:17:47.712Z,3.70
2022-08-29T10:20:16.578Z,3.50
2022-08-29T10:22:53.181Z,3.30
2022-08-29T10:25:35.924Z,3.25
2022-08-29T10:28:17.377Z,3.50
2022-08-29T10:30:58.680Z,3.15
2022-08-29T10:33:49.716Z,3.45
2022-08-29T10:36:26.912Z,3.92
2022-08-29T10:39:03.796Z,3.60
2022-08-29T10:41:40.516Z,4.03
2022-08-29T10:44:26.624Z,3.67
2022-08-29T10:47:23.891Z,3.35
2022-08-29T10:50:17.188Z,4.13
2022-08-29T10:53:08.182Z,4.20
2022-08-29T10:56:04.505Z,3.58
2022-08-29T10:58:52.119Z,3.67
2022-08-29T11:01:28.363Z,3.30
2022-08-29T11:04:17.553Z,3.70
2022-08-29T11:06:57.037Z,3.67
2022-08-29T11:09:31.965Z,3.70
2022-08-29T11:12:08.972Z,3.28
2022-08-29T11:14:44.881Z,3.60
2022-08-29T11:17:18.203Z,3.85
2022-08-29T11:20:02.263Z,3.35
2022-08-29T11:22:41.434Z,2.60
2022-08-29T11:25:15.869Z,3.58
2022-08-29T11:27:57.272Z,3.25
2022-08-29T11:30:41.055Z,3.05
2022-08-29T11:33:25.287Z,3.53
2022-08-29T11:36:25.936Z,3.42
2022-08-29T11:39:35.949Z,3.13
2022-08-29T11:42:09.446Z,3.25
2022-08-29T11:44:41.765Z,3.05
2022-08-29T11:47:41.039Z,3.03
2022-08-29T11:50:31.027Z,3.50
2022-08-29T11:53:10.591Z,2.95
2022-08-29T11:55:44.411Z,2.95
2022-08-29T11:58:46.723Z,3.28
2022-08-29T12:02:00.060Z,3.53
2022-08-29T12:04:55.834Z,3.10
2022-08-29T12:07:37.482Z,3.33
2022-08-29T12:10:10.465Z,2.67
2022-08-29T12:12:58.981Z,2.95
2022-08-29T12:16:07.695Z,2.72
2022-08-29T12:18:47.666Z,2.70
2022-08-29T12:21:49.510Z,2.67
2022-08-29T12:24:57.300Z,3.00
2022-08-29T12:28:03.929Z,3.10
2022-08-29T12:30:42.974Z,2.90
2022-08-29T12:33:36.187Z,2.80
2022-08-29T12:36:25.921Z,2.45
2022-08-29T12:44:25.580Z,3.05
2022-08-29T12:47:03.528Z,2.85
2022-08-29T12:49:40.866Z,2.53
2022-08-29T12:52:24.597Z,2.28
2022-08-29T12:54:56.601Z,3.10
2022-08-29T13:39:41.848Z,2.35
2022-08-29T13:42:31.430Z,2.53
2022-08-29T13:45:20.896Z,2.92
2022-08-29T13:48:18.852Z,2.70
2022-08-29T13:53:21.246Z,2.70
2022-08-29T13:55:49.450Z,2.70
2022-08-29T13:58:21.769Z,2.53
2022-08-29T14:03:56.655Z,2.70
2022-08-29T14:06:28.268Z,2.42
2022-08-29T14:08:59.854Z,2.92
2022-08-29T14:11:28.457Z,2.67
2022-08-29T14:13:56.976Z,2.80
2022-08-29T14:16:27.711Z,3.20
2022-08-29T14:18:55.934Z,2.70
2022-08-29T14:21:24.714Z,2.80
2022-08-29T14:23:54.648Z,2.42
2022-08-29T14:26:23.260Z,2.88
2022-08-29T14:28:52.841Z,2.42
2022-08-29T14:31:21.102Z,3.08
2022-08-29T14:33:51.505Z,2.63
2022-08-29T14:36:19.930Z,2.85
2022-08-29T14:38:55.936Z,2.90
2022-08-29T14:41:25.632Z,3.17
2022-08-29T14:43:54.306Z,2.50
2022-08-29T14:46:22.961Z,3.00
2022-08-29T14:48:53.388Z,2.50
2022-08-29T14:51:22.649Z,3.25
2022-08-29T14:53:54.238Z,2.40
2022-08-29T14:56:47.508Z,2.33
2022-08-29T14:59:17.527Z,3.03
2022-08-29T15:01:51.070Z,3.13
2022-08-29T15:04:35.811Z,2.78
2022-08-29T15:07:12.500Z,2.95
2022-08-29T15:09:43.874Z,3.05
2022-08-29T15:12:14.488Z,3.10
2022-08-29T15:14:42.800Z,3.40
2022-08-29T15:17:11.850Z,3.10
2022-08-29T15:20:31.465Z,3.28
2022-08-29T15:22:31.187Z,2.83
2022-08-29T15:25:00.089Z,3.25
2022-08-29T15:27:28.759Z,3.00
2022-08-29T15:29:57.387Z,3.20
2022-08-29T15:32:27.014Z,3.05
2022-08-29T15:34:56.713Z,3.30
2022-08-29T15:37:26.679Z,3.65
2022-08-29T15:42:29.815Z,3.27
2022-08-29T15:45:02.375Z,3.28
2022-08-29T15:47:35.948Z,3.45
2022-08-29T15:50:09.868Z,3.53
2022-08-29T15:52:39.717Z,3.05
2022-08-29T15:55:09.130Z,3.50
2022-08-29T15:57:51.098Z,3.55
2022-08-29T16:00:29.898Z,3.50
2022-08-29T16:03:02.930Z,2.92
2022-08-29T16:05:34.198Z,3.33
2022-08-29T16:08:03.733Z,3.38
2022-08-29T16:10:33.108Z,3.53
2022-08-29T16:13:01.794Z,3.90
2022-08-29T16:15:31.535Z,3.25
2022-08-29T16:18:01.097Z,3.53
2022-08-29T16:20:29.968Z,3.10
2022-08-29T16:23:01.219Z,3.42
2022-08-29T16:25:32.063Z,3.70
2022-08-29T16:28:01.284Z,3.15
2022-08-29T16:30:32.567Z,3.40
2022-08-29T16:33:01.586Z,3.20
2022-08-29T16:35:30.954Z,3.25
2022-08-29T16:38:03.027Z,3.83
2022-08-29T16:40:42.118Z,3.40
2022-08-29T16:43:10.999Z,3.10
2022-08-29T16:45:39.175Z,3.72
2022-08-29T16:48:15.543Z,3.67
2022-08-29T16:50:44.940Z,3.35
2022-08-29T16:53:14.491Z,3.70
2022-08-29T16:55:43.389Z,2.97
2022-08-29T16:58:29.023Z,3.35
2022-08-29T17:00:58.041Z,3.40
2022-08-29T17:03:26.257Z,3.72
2022-08-29T17:05:54.701Z,3.55
2022-08-29T17:08:23.942Z,3.25
2022-08-29T17:10:51.497Z,3.13
2022-08-29T17:13:19.034Z,3.58
2022-08-29T17:15:46.323Z,3.00
2022-08-29T17:18:14.952Z,3.10
2022-08-29T17:20:46.249Z,3.28
2022-08-29T17:23:16.138Z,3.20
2022-08-29T17:25:45.828Z,3.30
2022-08-29T17:28:18.056Z,3.28
2022-08-29T17:30:47.762Z,2.90
2022-08-29T17:33:16.947Z,3.17
2022-08-29T17:35:46.021Z,2.75
2022-08-29T17:38:15.402Z,3.10
2022-08-29T17:40:46.206Z,4.00
2022-08-29T17:43:18.306Z,2.97
2022-08-29T17:45:47.435Z,2.70
2022-08-29T17:48:15.836Z,2.80
2022-08-29T17:50:44.957Z,3.25
2022-08-29T17:53:13.101Z,3.38
2022-08-29T17:55:42.071Z,3.30
2022-08-29T17:58:12.476Z,2.90
2022-08-29T18:00:41.952Z,2.90
2022-08-29T18:03:10.823Z,3.22
2022-08-29T18:05:39.386Z,2.95
2022-08-29T18:08:07.996Z,3.00
2022-08-29T18:10:37.235Z,3.13
2022-08-29T18:13:06.299Z,2.83
2022-08-29T18:15:36.319Z,3.00
2022-08-29T18:18:06.651Z,3.65
2022-08-29T18:20:34.811Z,3.25
2022-08-29T18:23:03.718Z,3.20
2022-08-29T18:25:32.522Z,3.58
2022-08-29T18:28:00.825Z,3.30
2022-08-29T18:30:29.678Z,3.70
2022-08-29T18:32:59.171Z,3.33
2022-08-29T18:35:27.893Z,3.50
2022-08-29T18:37:56.059Z,3.35
2022-08-29T18:40:25.359Z,4.00
2022-08-29T18:42:53.674Z,3.17
2022-08-29T18:45:21.914Z,3.50
2022-08-29T18:47:50.157Z,3.15
2022-08-29T18:50:37.949Z,3.20
2022-08-29T18:53:11.759Z,3.75
2022-08-29T18:55:44.942Z,3.08
2022-08-29T18:58:19.101Z,3.63
2022-08-29T19:00:48.362Z,3.70
2022-08-29T19:03:17.082Z,3.45
2022-08-29T19:05:49.455Z,3.50
2022-08-29T19:08:20.584Z,3.72
2022-08-29T19:10:49.745Z,3.42
2022-08-29T19:15:00.817Z,3.55
2022-08-29T19:16:13.298Z,3.72
2022-08-29T19:18:41.973Z,3.40
2022-08-29T19:21:10.788Z,3.53
2022-08-29T19:23:43.987Z,3.70
2022-08-29T19:26:20.518Z,3.33
2022-08-29T19:28:49.652Z,3.80
2022-08-29T19:31:18.348Z,3.58
2022-08-29T19:33:48.504Z,3.35
2022-08-29T19:36:18.420Z,3.67
2022-08-29T19:38:47.849Z,4.10
2022-08-29T19:41:16.332Z,3.95
2022-08-29T19:43:45.845Z,4.00
2022-08-29T19:46:19.951Z,3.95
2022-08-29T19:48:51.213Z,4.10
2022-08-29T19:51:25.579Z,3.42
2022-08-29T19:53:56.819Z,3.03
2022-08-29T19:56:26.636Z,3.10
2022-08-29T19:58:55.021Z,4.07
2022-08-29T20:01:24.075Z,3.03
2022-08-29T20:03:52.972Z,3.60
2022-08-29T20:06:23.664Z,3.75
2022-08-29T20:08:52.363Z,3.35
2022-08-29T20:11:23.960Z,3.67
2022-08-29T20:13:57.473Z,3.55
2022-08-29T20:16:32.275Z,3.22
2022-08-29T20:19:03.848Z,3.55
2022-08-29T20:21:36.240Z,3.83
2022-08-29T20:24:05.975Z,3.70
2022-08-29T20:26:37.816Z,3.38
2022-08-29T20:29:12.425Z,3.72
2022-08-29T20:31:41.664Z,3.78
2022-08-29T20:34:10.703Z,4.15
2022-08-29T20:36:58.950Z,3.80
2022-08-29T20:39:27.407Z,3.20
2022-08-29T20:41:59.271Z,3.45
2022-08-29T20:44:34.031Z,3.70
2022-08-29T20:47:02.624Z,3.38
2022-08-29T20:49:31.358Z,2.92
2022-08-29T20:52:02.222Z,3.80
2022-08-29T20:54:32.281Z,2.90
2022-08-29T20:57:00.805Z,3.35
2022-08-29T20:59:34.236Z,3.13
2022-08-29T21:02:05.165Z,3.35
2022-08-29T21:04:50.903Z,3.42
2022-08-29T21:07:21.588Z,3.42
2022-08-29T21:09:51.931Z,3.42
2022-08-29T21:12:21.566Z,3.40
2022-08-29T21:14:55.703Z,2.88
2022-08-29T21:17:24.577Z,3.00
2022-08-29T21:19:52.823Z,3.10
2022-08-29T21:22:24.990Z,3.28
2022-08-29T21:24:55.690Z,3.47
2022-08-29T21:27:23.828Z,3.58
2022-08-29T21:29:56.053Z,3.45
2022-08-29T21:32:24.203Z,3.90
2022-08-29T21:34:52.937Z,3.80
2022-08-29T21:37:23.085Z,3.10
2022-08-29T21:39:51.213Z,3.63
2022-08-29T21:42:19.992Z,3.50
2022-08-29T21:44:48.235Z,3.90
2022-08-29T21:47:17.970Z,3.53
2022-08-29T21:49:48.564Z,3.22
2022-08-29T21:52:16.807Z,3.20
2022-08-29T21:54:49.128Z,3.83
2022-08-29T21:57:39.619Z,3.92
2022-08-29T22:00:10.818Z,3.78
2022-08-29T22:02:40.167Z,3.70
2022-08-29T22:05:09.477Z,3.15
2022-08-29T22:07:39.963Z,3.40
2022-08-29T22:10:12.279Z,3.55
2022-08-29T22:12:41.207Z,3.60
2022-08-29T22:15:27.990Z,3.35
2022-08-29T22:17:56.680Z,3.53
2022-08-29T22:20:24.864Z,4.20
2022-08-29T22:22:53.842Z,3.50
2022-08-29T22:25:24.533Z,3.50
2022-08-29T22:27:52.635Z,3.58
2022-08-29T22:30:21.014Z,3.30
2022-08-29T22:32:53.022Z,3.40
2022-08-29T22:35:23.279Z,3.70
2022-08-29T22:37:54.386Z,3.13
2022-08-29T22:40:24.623Z,3.55
2022-08-29T22:42:53.087Z,3.42
2022-08-29T22:45:21.805Z,3.38
2022-08-29T22:47:49.940Z,3.47
2022-08-29T22:50:22.504Z,3.78
2022-08-29T22:52:52.221Z,3.60
2022-08-29T22:57:50.445Z,3.40
2022-08-29T23:00:22.255Z,3.25
2022-08-29T23:02:52.081Z,3.83
2022-08-29T23:05:21.883Z,3.78
2022-08-29T23:07:50.841Z,3.25
2022-08-29T23:10:22.297Z,3.58
2022-08-29T23:12:51.839Z,3.63
2022-08-29T23:15:21.016Z,4.03
2022-08-29T23:17:49.163Z,4.28
2022-08-29T23:20:19.421Z,3.85
2022-08-29T23:22:48.721Z,3.75
2022-08-29T23:25:18.490Z,3.60
2022-08-29T23:27:46.647Z,4.10
2022-08-29T23:30:16.147Z,4.40
2022-08-29T23:32:45.084Z,3.78
2022-08-29T23:35:13.317Z,3.50
2022-08-29T23:37:41.931Z,3.55
2022-08-29T23:40:11.130Z,4.30
2022-08-29T23:42:40.233Z,4.30
2022-08-29T23:45:11.021Z,4.18
2022-08-29T23:47:41.227Z,3.83
2022-08-29T23:50:12.948Z,4.18
2022-08-29T23:52:43.923Z,4.10
2022-08-29T23:55:16.388Z,3.72
2022-08-29T23:57:45.582Z,4.10
